Abney, South Carolina
Current Conditions -  °F | °C
As of 2:15 PM on Tuesday 21 Oct 2014 (Local Time) from KCDN Reporting Station
Clear Clear  
Wind Chill: 73°   Ceiling: Unl
Heat Index: 73°   Visibility: 10mi
Dew Point: 50°   Wind: 7mph
Humidity: 44%   Direction: 210°SSW
Pressure: 29.89"   Gusts: NA
Location:  34.5438°N, 80.5351°W
Report Text: KCDN 211815Z AUTO 21006KT 10SM CLR 23/10 A2989 RMK AO2 TSNO
Loading
Personal Weather Stations






























Interactive Weather Map
Tropical Storm Tracking
New forecast layout! Learn more

10-Day Weather Forecast

Advertisements
Track Severe Weather on mobile